sensor_id;sensor_type;location;lat;lon;timestamp;temperature;humidity
39021;DHT22;25188;51.958;5.842;2023-05-24T00:01:40;9.80;78.60
39021;DHT22;25188;51.958;5.842;2023-05-24T00:04:07;9.80;79.00
39021;DHT22;25188;51.958;5.842;2023-05-24T00:06:33;9.70;79.10
39021;DHT22;25188;51.958;5.842;2023-05-24T00:09:05;9.70;79.40
39021;DHT22;25188;51.958;5.842;2023-05-24T00:11:30;9.70;79.60
39021;DHT22;25188;51.958;5.842;2023-05-24T00:13:56;9.70;79.80
39021;DHT22;25188;51.958;5.842;2023-05-24T00:16:22;9.70;80.10
39021;DHT22;25188;51.958;5.842;2023-05-24T00:18:48;9.70;80.00
39021;DHT22;25188;51.958;5.842;2023-05-24T00:21:14;9.70;80.00
39021;DHT22;25188;51.958;5.842;2023-05-24T00:23:40;9.70;80.20
39021;DHT22;25188;51.958;5.842;2023-05-24T00:26:07;9.60;80.30
39021;DHT22;25188;51.958;5.842;2023-05-24T00:28:33;9.60;80.50
39021;DHT22;25188;51.958;5.842;2023-05-24T00:31:00;9.60;80.60
39021;DHT22;25188;51.958;5.842;2023-05-24T00:33:25;9.60;80.90
39021;DHT22;25188;51.958;5.842;2023-05-24T00:35:52;9.60;81.00
39021;DHT22;25188;51.958;5.842;2023-05-24T00:38:25;9.70;81.30
39021;DHT22;25188;51.958;5.842;2023-05-24T00:40:51;9.50;81.30
39021;DHT22;25188;51.958;5.842;2023-05-24T00:43:17;9.50;81.50
39021;DHT22;25188;51.958;5.842;2023-05-24T00:45:43;9.50;81.70
39021;DHT22;25188;51.958;5.842;2023-05-24T00:48:10;9.40;81.80
39021;DHT22;25188;51.958;5.842;2023-05-24T00:50:37;9.40;82.70
39021;DHT22;25188;51.958;5.842;2023-05-24T00:53:03;9.30;82.10
39021;DHT22;25188;51.958;5.842;2023-05-24T00:55:30;9.30;82.00
39021;DHT22;25188;51.958;5.842;2023-05-24T00:57:59;9.40;82.20
39021;DHT22;25188;51.958;5.842;2023-05-24T01:00:26;9.30;82.30
39021;DHT22;25188;51.958;5.842;2023-05-24T01:02:52;9.20;82.50
39021;DHT22;25188;51.958;5.842;2023-05-24T01:05:19;9.20;82.60
39021;DHT22;25188;51.958;5.842;2023-05-24T01:10:50;9.10;83.10
39021;DHT22;25188;51.958;5.842;2023-05-24T01:13:29;9.10;83.30
39021;DHT22;25188;51.958;5.842;2023-05-24T01:16:02;9.10;83.30
39021;DHT22;25188;51.958;5.842;2023-05-24T01:18:34;9.00;83.30
39021;DHT22;25188;51.958;5.842;2023-05-24T01:21:15;9.00;83.60
39021;DHT22;25188;51.958;5.842;2023-05-24T01:23:55;8.90;83.70
39021;DHT22;25188;51.958;5.842;2023-05-24T01:26:30;8.90;83.90
39021;DHT22;25188;51.958;5.842;2023-05-24T01:28:57;8.80;83.60
39021;DHT22;25188;51.958;5.842;2023-05-24T01:31:24;8.80;83.70
39021;DHT22;25188;51.958;5.842;2023-05-24T01:33:50;8.70;83.80
39021;DHT22;25188;51.958;5.842;2023-05-24T01:36:15;8.70;84.10
39021;DHT22;25188;51.958;5.842;2023-05-24T01:38:41;8.60;84.20
39021;DHT22;25188;51.958;5.842;2023-05-24T01:44:53;8.60;84.80
39021;DHT22;25188;51.958;5.842;2023-05-24T01:47:00;8.60;84.90
39021;DHT22;25188;51.958;5.842;2023-05-24T01:49:30;8.50;85.10
39021;DHT22;25188;51.958;5.842;2023-05-24T01:52:01;8.50;85.30
39021;DHT22;25188;51.958;5.842;2023-05-24T01:54:32;8.40;85.50
39021;DHT22;25188;51.958;5.842;2023-05-24T01:56:58;8.40;85.70
39021;DHT22;25188;51.958;5.842;2023-05-24T01:59:25;8.40;86.00
39021;DHT22;25188;51.958;5.842;2023-05-24T02:01:53;8.40;86.20
39021;DHT22;25188;51.958;5.842;2023-05-24T02:04:19;8.40;86.40
39021;DHT22;25188;51.958;5.842;2023-05-24T02:06:44;8.50;86.60
39021;DHT22;25188;51.958;5.842;2023-05-24T02:09:10;8.40;86.70
39021;DHT22;25188;51.958;5.842;2023-05-24T02:11:36;8.50;87.00
39021;DHT22;25188;51.958;5.842;2023-05-24T02:14:01;8.50;87.10
39021;DHT22;25188;51.958;5.842;2023-05-24T02:16:27;8.40;87.90
39021;DHT22;25188;51.958;5.842;2023-05-24T02:18:55;8.50;87.60
39021;DHT22;25188;51.958;5.842;2023-05-24T02:21:21;8.40;87.50
39021;DHT22;25188;51.958;5.842;2023-05-24T02:23:48;8.50;87.70
39021;DHT22;25188;51.958;5.842;2023-05-24T02:26:13;8.50;87.80
39021;DHT22;25188;51.958;5.842;2023-05-24T02:28:39;8.40;88.00
39021;DHT22;25188;51.958;5.842;2023-05-24T02:31:05;8.40;88.20
39021;DHT22;25188;51.958;5.842;2023-05-24T02:33:31;8.50;88.60
39021;DHT22;25188;51.958;5.842;2023-05-24T02:35:58;8.40;88.70
39021;DHT22;25188;51.958;5.842;2023-05-24T02:38:23;8.40;89.00
39021;DHT22;25188;51.958;5.842;2023-05-24T02:40:49;8.40;89.10
39021;DHT22;25188;51.958;5.842;2023-05-24T02:43:15;8.40;89.40
39021;DHT22;25188;51.958;5.842;2023-05-24T02:45:40;8.40;89.70
39021;DHT22;25188;51.958;5.842;2023-05-24T02:48:06;8.40;90.00
39021;DHT22;25188;51.958;5.842;2023-05-24T02:50:32;8.40;90.10
39021;DHT22;25188;51.958;5.842;2023-05-24T02:52:58;8.30;90.10
39021;DHT22;25188;51.958;5.842;2023-05-24T02:55:23;8.30;90.20
39021;DHT22;25188;51.958;5.842;2023-05-24T02:57:49;8.30;90.30
39021;DHT22;25188;51.958;5.842;2023-05-24T03:00:16;8.30;90.50
39021;DHT22;25188;51.958;5.842;2023-05-24T03:02:43;8.30;90.60
39021;DHT22;25188;51.958;5.842;2023-05-24T03:05:11;8.30;90.70
39021;DHT22;25188;51.958;5.842;2023-05-24T03:07:37;8.30;90.80
39021;DHT22;25188;51.958;5.842;2023-05-24T03:10:03;8.30;91.00
39021;DHT22;25188;51.958;5.842;2023-05-24T03:12:29;8.30;91.10
39021;DHT22;25188;51.958;5.842;2023-05-24T03:14:54;8.20;91.10
39021;DHT22;25188;51.958;5.842;2023-05-24T03:17:20;8.20;91.20
39021;DHT22;25188;51.958;5.842;2023-05-24T03:19:46;8.20;91.30
39021;DHT22;25188;51.958;5.842;2023-05-24T03:22:11;8.20;91.40
39021;DHT22;25188;51.958;5.842;2023-05-24T03:24:37;8.20;91.50
39021;DHT22;25188;51.958;5.842;2023-05-24T03:27:04;8.10;91.50
39021;DHT22;25188;51.958;5.842;2023-05-24T03:29:30;8.10;91.60
39021;DHT22;25188;51.958;5.842;2023-05-24T03:31:56;8.10;91.70
39021;DHT22;25188;51.958;5.842;2023-05-24T03:34:21;8.00;91.80
39021;DHT22;25188;51.958;5.842;2023-05-24T03:36:47;8.00;92.00
39021;DHT22;25188;51.958;5.842;2023-05-24T03:39:12;7.90;92.00
39021;DHT22;25188;51.958;5.842;2023-05-24T03:41:38;7.90;92.20
39021;DHT22;25188;51.958;5.842;2023-05-24T03:44:04;7.90;92.20
39021;DHT22;25188;51.958;5.842;2023-05-24T03:46:29;7.90;92.30
39021;DHT22;25188;51.958;5.842;2023-05-24T03:48:55;7.90;92.50
39021;DHT22;25188;51.958;5.842;2023-05-24T03:51:21;7.90;92.60
39021;DHT22;25188;51.958;5.842;2023-05-24T03:53:56;7.90;92.70
39021;DHT22;25188;51.958;5.842;2023-05-24T03:56:22;7.90;92.80
39021;DHT22;25188;51.958;5.842;2023-05-24T03:58:48;7.90;93.00
39021;DHT22;25188;51.958;5.842;2023-05-24T04:01:14;7.90;93.30
39021;DHT22;25188;51.958;5.842;2023-05-24T04:03:39;7.90;93.40
39021;DHT22;25188;51.958;5.842;2023-05-24T04:06:05;7.80;93.50
39021;DHT22;25188;51.958;5.842;2023-05-24T04:08:31;7.90;93.70
39021;DHT22;25188;51.958;5.842;2023-05-24T04:10:57;7.90;93.80
39021;DHT22;25188;51.958;5.842;2023-05-24T04:13:22;7.90;93.90
39021;DHT22;25188;51.958;5.842;2023-05-24T04:15:48;7.90;94.00
39021;DHT22;25188;51.958;5.842;2023-05-24T04:18:13;7.90;94.10
39021;DHT22;25188;51.958;5.842;2023-05-24T04:20:39;7.90;94.30
39021;DHT22;25188;51.958;5.842;2023-05-24T04:23:05;8.00;94.50
39021;DHT22;25188;51.958;5.842;2023-05-24T04:25:31;8.00;94.90
39021;DHT22;25188;51.958;5.842;2023-05-24T04:27:57;8.00;94.80
39021;DHT22;25188;51.958;5.842;2023-05-24T04:30:24;8.00;94.90
39021;DHT22;25188;51.958;5.842;2023-05-24T04:32:50;7.90;94.90
39021;DHT22;25188;51.958;5.842;2023-05-24T04:35:16;8.10;95.20
39021;DHT22;25188;51.958;5.842;2023-05-24T04:37:41;8.10;95.30
39021;DHT22;25188;51.958;5.842;2023-05-24T04:40:07;8.10;95.40
39021;DHT22;25188;51.958;5.842;2023-05-24T04:42:34;8.10;95.50
39021;DHT22;25188;51.958;5.842;2023-05-24T04:44:59;8.20;95.60
39021;DHT22;25188;51.958;5.842;2023-05-24T04:47:25;8.20;95.70
39021;DHT22;25188;51.958;5.842;2023-05-24T04:49:51;8.30;96.10
39021;DHT22;25188;51.958;5.842;2023-05-24T04:52:17;8.30;95.90
39021;DHT22;25188;51.958;5.842;2023-05-24T04:54:43;8.30;96.00
39021;DHT22;25188;51.958;5.842;2023-05-24T04:57:08;8.40;96.10
39021;DHT22;25188;51.958;5.842;2023-05-24T04:59:34;8.40;96.30
39021;DHT22;25188;51.958;5.842;2023-05-24T05:02:00;8.40;96.40
39021;DHT22;25188;51.958;5.842;2023-05-24T05:04:25;8.50;96.50
39021;DHT22;25188;51.958;5.842;2023-05-24T05:06:51;8.50;96.50
39021;DHT22;25188;51.958;5.842;2023-05-24T05:09:16;8.60;96.60
39021;DHT22;25188;51.958;5.842;2023-05-24T05:11:44;8.60;96.80
39021;DHT22;25188;51.958;5.842;2023-05-24T05:14:10;8.60;96.90
39021;DHT22;25188;51.958;5.842;2023-05-24T05:16:36;8.70;96.90
39021;DHT22;25188;51.958;5.842;2023-05-24T05:19:03;8.80;97.00
39021;DHT22;25188;51.958;5.842;2023-05-24T05:21:30;8.80;97.00
39021;DHT22;25188;51.958;5.842;2023-05-24T05:23:59;8.90;97.10
39021;DHT22;25188;51.958;5.842;2023-05-24T05:26:29;8.90;97.20
39021;DHT22;25188;51.958;5.842;2023-05-24T05:28:56;8.90;97.20
39021;DHT22;25188;51.958;5.842;2023-05-24T05:31:21;9.00;97.30
39021;DHT22;25188;51.958;5.842;2023-05-24T05:33:47;9.00;97.40
39021;DHT22;25188;51.958;5.842;2023-05-24T05:36:14;9.10;97.70
39021;DHT22;25188;51.958;5.842;2023-05-24T05:38:39;9.10;98.00
39021;DHT22;25188;51.958;5.842;2023-05-24T05:41:05;9.30;98.10
39021;DHT22;25188;51.958;5.842;2023-05-24T05:43:31;9.20;98.30
39021;DHT22;25188;51.958;5.842;2023-05-24T05:45:57;9.30;98.30
39021;DHT22;25188;51.958;5.842;2023-05-24T05:48:23;9.30;98.30
39021;DHT22;25188;51.958;5.842;2023-05-24T05:50:48;9.40;98.30
39021;DHT22;25188;51.958;5.842;2023-05-24T05:53:15;9.40;98.30
39021;DHT22;25188;51.958;5.842;2023-05-24T05:55:40;9.50;98.30
39021;DHT22;25188;51.958;5.842;2023-05-24T05:58:06;9.50;98.40
39021;DHT22;25188;51.958;5.842;2023-05-24T06:00:32;9.60;98.60
39021;DHT22;25188;51.958;5.842;2023-05-24T06:02:57;9.70;98.80
39021;DHT22;25188;51.958;5.842;2023-05-24T06:05:23;9.70;98.90
39021;DHT22;25188;51.958;5.842;2023-05-24T06:07:49;9.80;99.20
39021;DHT22;25188;51.958;5.842;2023-05-24T06:10:14;9.90;99.30
39021;DHT22;25188;51.958;5.842;2023-05-24T06:12:40;10.00;99.50
39021;DHT22;25188;51.958;5.842;2023-05-24T06:15:06;10.10;99.50
39021;DHT22;25188;51.958;5.842;2023-05-24T06:17:32;10.10;99.50
39021;DHT22;25188;51.958;5.842;2023-05-24T06:19:59;10.30;99.60
39021;DHT22;25188;51.958;5.842;2023-05-24T06:22:25;10.40;99.50
39021;DHT22;25188;51.958;5.842;2023-05-24T06:24:52;10.50;99.50
39021;DHT22;25188;51.958;5.842;2023-05-24T06:27:18;10.60;99.50
39021;DHT22;25188;51.958;5.842;2023-05-24T06:29:44;10.70;99.30
39021;DHT22;25188;51.958;5.842;2023-05-24T06:32:10;10.80;99.60
39021;DHT22;25188;51.958;5.842;2023-05-24T06:34:35;10.80;99.40
39021;DHT22;25188;51.958;5.842;2023-05-24T06:37:01;10.90;98.90
39021;DHT22;25188;51.958;5.842;2023-05-24T06:39:27;11.00;98.80
39021;DHT22;25188;51.958;5.842;2023-05-24T06:41:52;11.00;98.70
39021;DHT22;25188;51.958;5.842;2023-05-24T06:44:18;11.10;98.60
39021;DHT22;25188;51.958;5.842;2023-05-24T06:46:44;11.20;98.60
39021;DHT22;25188;51.958;5.842;2023-05-24T06:49:11;11.30;98.50
39021;DHT22;25188;51.958;5.842;2023-05-24T06:51:36;11.40;98.50
39021;DHT22;25188;51.958;5.842;2023-05-24T06:54:02;11.60;98.50
39021;DHT22;25188;51.958;5.842;2023-05-24T06:56:28;11.70;98.40
39021;DHT22;25188;51.958;5.842;2023-05-24T06:58:54;11.80;98.20
39021;DHT22;25188;51.958;5.842;2023-05-24T07:01:20;12.00;98.00
39021;DHT22;25188;51.958;5.842;2023-05-24T07:03:46;12.10;97.80
39021;DHT22;25188;51.958;5.842;2023-05-24T07:06:12;12.20;97.50
39021;DHT22;25188;51.958;5.842;2023-05-24T07:08:41;12.40;97.40
39021;DHT22;25188;51.958;5.842;2023-05-24T07:11:07;12.50;97.40
39021;DHT22;25188;51.958;5.842;2023-05-24T07:13:34;12.60;96.90
39021;DHT22;25188;51.958;5.842;2023-05-24T07:15:59;12.70;96.70
39021;DHT22;25188;51.958;5.842;2023-05-24T07:18:25;12.80;96.50
39021;DHT22;25188;51.958;5.842;2023-05-24T07:20:51;12.90;96.20
39021;DHT22;25188;51.958;5.842;2023-05-24T07:23:16;13.00;95.90
39021;DHT22;25188;51.958;5.842;2023-05-24T07:25:42;13.20;95.60
39021;DHT22;25188;51.958;5.842;2023-05-24T07:28:08;13.30;95.50
39021;DHT22;25188;51.958;5.842;2023-05-24T07:30:33;13.40;95.10
39021;DHT22;25188;51.958;5.842;2023-05-24T07:32:59;13.50;94.60
39021;DHT22;25188;51.958;5.842;2023-05-24T07:35:26;13.60;94.30
39021;DHT22;25188;51.958;5.842;2023-05-24T07:37:53;13.70;94.10
39021;DHT22;25188;51.958;5.842;2023-05-24T07:40:19;13.70;93.40
39021;DHT22;25188;51.958;5.842;2023-05-24T07:42:45;13.70;92.80
39021;DHT22;25188;51.958;5.842;2023-05-24T07:45:12;13.60;92.60
39021;DHT22;25188;51.958;5.842;2023-05-24T07:47:37;13.50;92.10
39021;DHT22;25188;51.958;5.842;2023-05-24T07:50:03;13.50;92.10
39021;DHT22;25188;51.958;5.842;2023-05-24T07:52:29;13.50;92.00
39021;DHT22;25188;51.958;5.842;2023-05-24T07:54:55;13.50;91.90
39021;DHT22;25188;51.958;5.842;2023-05-24T07:57:21;13.50;91.60
39021;DHT22;25188;51.958;5.842;2023-05-24T07:59:47;13.50;91.60
39021;DHT22;25188;51.958;5.842;2023-05-24T08:02:13;13.50;91.50
39021;DHT22;25188;51.958;5.842;2023-05-24T08:04:40;13.60;91.50
39021;DHT22;25188;51.958;5.842;2023-05-24T08:07:06;13.60;91.50
39021;DHT22;25188;51.958;5.842;2023-05-24T08:09:32;13.70;91.10
39021;DHT22;25188;51.958;5.842;2023-05-24T08:12:03;13.80;90.70
39021;DHT22;25188;51.958;5.842;2023-05-24T08:14:29;13.90;90.50
39021;DHT22;25188;51.958;5.842;2023-05-24T08:16:55;14.00;90.20
39021;DHT22;25188;51.958;5.842;2023-05-24T08:19:21;14.00;90.00
39021;DHT22;25188;51.958;5.842;2023-05-24T08:21:47;14.10;89.80
39021;DHT22;25188;51.958;5.842;2023-05-24T08:24:13;14.20;89.40
39021;DHT22;25188;51.958;5.842;2023-05-24T08:26:39;14.40;89.10
39021;DHT22;25188;51.958;5.842;2023-05-24T08:29:04;14.50;88.30
39021;DHT22;25188;51.958;5.842;2023-05-24T08:31:30;14.60;87.90
39021;DHT22;25188;51.958;5.842;2023-05-24T08:33:59;14.70;86.90
39021;DHT22;25188;51.958;5.842;2023-05-24T08:36:25;14.80;85.90
39021;DHT22;25188;51.958;5.842;2023-05-24T08:38:51;14.80;85.80
39021;DHT22;25188;51.958;5.842;2023-05-24T08:41:16;14.90;84.80
39021;DHT22;25188;51.958;5.842;2023-05-24T08:43:42;15.00;84.30
39021;DHT22;25188;51.958;5.842;2023-05-24T08:46:09;15.10;83.70
39021;DHT22;25188;51.958;5.842;2023-05-24T08:48:45;15.10;83.30
39021;DHT22;25188;51.958;5.842;2023-05-24T08:51:13;15.10;82.30
39021;DHT22;25188;51.958;5.842;2023-05-24T08:53:40;15.10;81.50
39021;DHT22;25188;51.958;5.842;2023-05-24T08:56:06;15.10;80.90
39021;DHT22;25188;51.958;5.842;2023-05-24T08:58:36;15.20;81.00
39021;DHT22;25188;51.958;5.842;2023-05-24T09:01:03;15.20;79.30
39021;DHT22;25188;51.958;5.842;2023-05-24T09:03:31;15.30;78.70
39021;DHT22;25188;51.958;5.842;2023-05-24T09:05:58;15.40;78.40
39021;DHT22;25188;51.958;5.842;2023-05-24T09:08:25;15.50;78.30
39021;DHT22;25188;51.958;5.842;2023-05-24T09:10:52;15.60;78.00
39021;DHT22;25188;51.958;5.842;2023-05-24T09:13:19;15.60;78.00
39021;DHT22;25188;51.958;5.842;2023-05-24T09:15:47;15.70;77.30
39021;DHT22;25188;51.958;5.842;2023-05-24T09:18:12;15.60;77.20
39021;DHT22;25188;51.958;5.842;2023-05-24T09:20:38;15.60;77.00
39021;DHT22;25188;51.958;5.842;2023-05-24T09:23:04;15.60;76.90
39021;DHT22;25188;51.958;5.842;2023-05-24T09:25:31;15.50;76.70
39021;DHT22;25188;51.958;5.842;2023-05-24T09:27:57;15.50;77.20
39021;DHT22;25188;51.958;5.842;2023-05-24T09:30:23;15.40;77.00
39021;DHT22;25188;51.958;5.842;2023-05-24T09:32:58;15.30;77.30
39021;DHT22;25188;51.958;5.842;2023-05-24T09:35:25;15.20;77.20
39021;DHT22;25188;51.958;5.842;2023-05-24T09:37:56;15.20;77.60
39021;DHT22;25188;51.958;5.842;2023-05-24T09:40:24;15.10;77.90
39021;DHT22;25188;51.958;5.842;2023-05-24T09:43:02;15.10;78.00
39021;DHT22;25188;51.958;5.842;2023-05-24T09:45:28;15.10;78.00
39021;DHT22;25188;51.958;5.842;2023-05-24T09:47:53;15.10;77.80
39021;DHT22;25188;51.958;5.842;2023-05-24T09:50:19;15.10;77.60
39021;DHT22;25188;51.958;5.842;2023-05-24T09:52:45;15.10;77.60
39021;DHT22;25188;51.958;5.842;2023-05-24T09:55:18;15.20;77.50
39021;DHT22;25188;51.958;5.842;2023-05-24T09:58:00;15.30;77.50
39021;DHT22;25188;51.958;5.842;2023-05-24T10:00:27;15.30;77.40
39021;DHT22;25188;51.958;5.842;2023-05-24T10:03:04;15.40;77.00
39021;DHT22;25188;51.958;5.842;2023-05-24T10:05:34;15.40;77.00
39021;DHT22;25188;51.958;5.842;2023-05-24T10:08:00;15.50;77.00
39021;DHT22;25188;51.958;5.842;2023-05-24T10:10:28;15.50;76.70
39021;DHT22;25188;51.958;5.842;2023-05-24T10:12:55;15.50;76.10
39021;DHT22;25188;51.958;5.842;2023-05-24T10:15:21;15.50;75.90
39021;DHT22;25188;51.958;5.842;2023-05-24T10:17:47;15.50;75.80
39021;DHT22;25188;51.958;5.842;2023-05-24T10:20:12;15.50;76.50
39021;DHT22;25188;51.958;5.842;2023-05-24T10:22:46;15.60;75.80
39021;DHT22;25188;51.958;5.842;2023-05-24T10:25:22;15.60;75.70
39021;DHT22;25188;51.958;5.842;2023-05-24T10:27:53;15.70;74.50
39021;DHT22;25188;51.958;5.842;2023-05-24T10:30:30;15.70;74.40
39021;DHT22;25188;51.958;5.842;2023-05-24T10:32:58;15.80;73.90
39021;DHT22;25188;51.958;5.842;2023-05-24T10:35:25;15.80;73.10
39021;DHT22;25188;51.958;5.842;2023-05-24T10:37:52;15.90;73.10
39021;DHT22;25188;51.958;5.842;2023-05-24T10:40:22;15.90;72.70
39021;DHT22;25188;51.958;5.842;2023-05-24T10:42:52;16.00;72.70
39021;DHT22;25188;51.958;5.842;2023-05-24T10:47:52;16.20;72.30
39021;DHT22;25188;51.958;5.842;2023-05-24T10:50:21;16.30;71.80
39021;DHT22;25188;51.958;5.842;2023-05-24T10:52:50;16.30;71.00
39021;DHT22;25188;51.958;5.842;2023-05-24T10:55:18;16.40;71.00
39021;DHT22;25188;51.958;5.842;2023-05-24T10:57:44;16.40;71.00
39021;DHT22;25188;51.958;5.842;2023-05-24T11:02:48;16.50;70.40
39021;DHT22;25188;51.958;5.842;2023-05-24T11:05:14;16.60;69.80
39021;DHT22;25188;51.958;5.842;2023-05-24T11:07:43;16.70;69.60
39021;DHT22;25188;51.958;5.842;2023-05-24T11:10:14;16.90;69.70
39021;DHT22;25188;51.958;5.842;2023-05-24T11:12:41;17.10;69.10
39021;DHT22;25188;51.958;5.842;2023-05-24T11:15:09;17.30;68.80
39021;DHT22;25188;51.958;5.842;2023-05-24T11:20:41;17.70;67.80
39021;DHT22;25188;51.958;5.842;2023-05-24T11:23:08;18.10;67.50
39021;DHT22;25188;51.958;5.842;2023-05-24T11:25:34;18.60;67.00
39021;DHT22;25188;51.958;5.842;2023-05-24T11:28:02;18.90;66.10
39021;DHT22;25188;51.958;5.842;2023-05-24T11:30:29;19.20;65.30
39021;DHT22;25188;51.958;5.842;2023-05-24T11:32:57;19.40;64.20
39021;DHT22;25188;51.958;5.842;2023-05-24T11:35:26;19.50;63.60
39021;DHT22;25188;51.958;5.842;2023-05-24T11:37:56;19.70;63.30
39021;DHT22;25188;51.958;5.842;2023-05-24T11:40:22;20.00;63.40
39021;DHT22;25188;51.958;5.842;2023-05-24T11:42:49;20.30;62.70
39021;DHT22;25188;51.958;5.842;2023-05-24T11:45:17;20.70;62.40
39021;DHT22;25188;51.958;5.842;2023-05-24T11:47:43;20.90;60.70
39021;DHT22;25188;51.958;5.842;2023-05-24T11:50:09;21.20;60.00
39021;DHT22;25188;51.958;5.842;2023-05-24T11:52:39;21.40;58.50
39021;DHT22;25188;51.958;5.842;2023-05-24T11:55:06;21.40;57.60
39021;DHT22;25188;51.958;5.842;2023-05-24T11:57:36;21.20;56.40
39021;DHT22;25188;51.958;5.842;2023-05-24T12:00:05;20.90;55.90
39021;DHT22;25188;51.958;5.842;2023-05-24T12:02:35;20.60;56.10
39021;DHT22;25188;51.958;5.842;2023-05-24T12:05:09;20.50;56.90
39021;DHT22;25188;51.958;5.842;2023-05-24T12:07:36;20.80;57.50
39021;DHT22;25188;51.958;5.842;2023-05-24T12:10:03;21.40;57.40
39021;DHT22;25188;51.958;5.842;2023-05-24T12:12:29;21.80;56.60
39021;DHT22;25188;51.958;5.842;2023-05-24T12:14:55;22.10;56.00
39021;DHT22;25188;51.958;5.842;2023-05-24T12:17:21;22.20;55.10
39021;DHT22;25188;51.958;5.842;2023-05-24T12:19:50;22.10;54.40
39021;DHT22;25188;51.958;5.842;2023-05-24T12:22:25;22.00;54.40
39021;DHT22;25188;51.958;5.842;2023-05-24T12:24:51;22.30;54.30
39021;DHT22;25188;51.958;5.842;2023-05-24T12:27:17;22.50;54.00
39021;DHT22;25188;51.958;5.842;2023-05-24T12:29:42;22.60;53.50
39021;DHT22;25188;51.958;5.842;2023-05-24T12:32:11;22.40;53.20
39021;DHT22;25188;51.958;5.842;2023-05-24T12:34:40;22.20;53.00
39021;DHT22;25188;51.958;5.842;2023-05-24T12:37:08;21.80;52.40
39021;DHT22;25188;51.958;5.842;2023-05-24T12:39:35;21.40;53.20
39021;DHT22;25188;51.958;5.842;2023-05-24T12:42:02;21.30;53.80
39021;DHT22;25188;51.958;5.842;2023-05-24T12:44:30;21.80;54.50
39021;DHT22;25188;51.958;5.842;2023-05-24T12:46:57;22.00;53.40
39021;DHT22;25188;51.958;5.842;2023-05-24T12:49:24;21.90;52.70
39021;DHT22;25188;51.958;5.842;2023-05-24T12:51:51;21.80;52.80
39021;DHT22;25188;51.958;5.842;2023-05-24T12:54:18;21.60;52.40
39021;DHT22;25188;51.958;5.842;2023-05-24T12:56:44;21.20;52.90
39021;DHT22;25188;51.958;5.842;2023-05-24T12:59:11;20.80;53.30
39021;DHT22;25188;51.958;5.842;2023-05-24T13:01:37;20.50;54.40
39021;DHT22;25188;51.958;5.842;2023-05-24T13:04:02;20.20;55.00
39021;DHT22;25188;51.958;5.842;2023-05-24T13:06:28;20.20;55.50
39021;DHT22;25188;51.958;5.842;2023-05-24T13:08:54;20.40;55.50
39021;DHT22;25188;51.958;5.842;2023-05-24T13:11:20;20.60;55.40
39021;DHT22;25188;51.958;5.842;2023-05-24T13:13:45;20.70;55.20
39021;DHT22;25188;51.958;5.842;2023-05-24T13:16:11;20.80;54.90
39021;DHT22;25188;51.958;5.842;2023-05-24T13:18:37;20.80;54.80
39021;DHT22;25188;51.958;5.842;2023-05-24T13:21:03;20.90;54.80
39021;DHT22;25188;51.958;5.842;2023-05-24T13:23:33;21.10;55.20
39021;DHT22;25188;51.958;5.842;2023-05-24T13:26:02;21.50;55.10
39021;DHT22;25188;51.958;5.842;2023-05-24T13:28:29;21.90;54.90
39021;DHT22;25188;51.958;5.842;2023-05-24T13:30:55;22.50;53.60
39021;DHT22;25188;51.958;5.842;2023-05-24T13:33:21;22.60;52.50
39021;DHT22;25188;51.958;5.842;2023-05-24T13:35:47;22.50;52.00
39021;DHT22;25188;51.958;5.842;2023-05-24T13:38:14;22.30;51.90
39021;DHT22;25188;51.958;5.842;2023-05-24T13:40:41;21.90;51.80
39021;DHT22;25188;51.958;5.842;2023-05-24T13:43:06;21.60;52.50
39021;DHT22;25188;51.958;5.842;2023-05-24T13:45:32;21.10;52.80
39021;DHT22;25188;51.958;5.842;2023-05-24T13:47:59;20.80;53.40
39021;DHT22;25188;51.958;5.842;2023-05-24T13:50:32;20.60;54.10
39021;DHT22;25188;51.958;5.842;2023-05-24T13:52:58;20.60;54.00
39021;DHT22;25188;51.958;5.842;2023-05-24T13:55:32;20.60;54.00
39021;DHT22;25188;51.958;5.842;2023-05-24T13:58:02;20.50;53.80
39021;DHT22;25188;51.958;5.842;2023-05-24T14:00:29;20.30;53.30
39021;DHT22;25188;51.958;5.842;2023-05-24T14:02:55;20.20;53.20
39021;DHT22;25188;51.958;5.842;2023-05-24T14:05:22;20.00;53.00
39021;DHT22;25188;51.958;5.842;2023-05-24T14:07:48;19.90;53.00
39021;DHT22;25188;51.958;5.842;2023-05-24T14:10:13;19.80;53.60
39021;DHT22;25188;51.958;5.842;2023-05-24T14:12:39;19.70;54.50
39021;DHT22;25188;51.958;5.842;2023-05-24T14:15:07;19.60;54.70
39021;DHT22;25188;51.958;5.842;2023-05-24T14:17:33;19.40;55.00
39021;DHT22;25188;51.958;5.842;2023-05-24T14:19:58;19.30;55.40
39021;DHT22;25188;51.958;5.842;2023-05-24T14:22:25;19.20;55.90
39021;DHT22;25188;51.958;5.842;2023-05-24T14:24:53;19.20;56.00
39021;DHT22;25188;51.958;5.842;2023-05-24T14:27:19;19.10;56.40
39021;DHT22;25188;51.958;5.842;2023-05-24T14:29:46;19.00;56.50
39021;DHT22;25188;51.958;5.842;2023-05-24T14:32:12;18.90;56.50
39021;DHT22;25188;51.958;5.842;2023-05-24T14:34:37;18.90;56.90
39021;DHT22;25188;51.958;5.842;2023-05-24T14:37:03;18.80;57.00
39021;DHT22;25188;51.958;5.842;2023-05-24T14:39:29;18.70;57.00
39021;DHT22;25188;51.958;5.842;2023-05-24T14:41:55;18.70;58.20
39021;DHT22;25188;51.958;5.842;2023-05-24T14:44:21;18.90;58.40
39021;DHT22;25188;51.958;5.842;2023-05-24T14:46:49;19.40;58.60
39021;DHT22;25188;51.958;5.842;2023-05-24T14:49:15;19.90;58.00
39021;DHT22;25188;51.958;5.842;2023-05-24T14:51:45;20.40;57.70
39021;DHT22;25188;51.958;5.842;2023-05-24T14:54:16;21.00;56.70
39021;DHT22;25188;51.958;5.842;2023-05-24T14:56:42;21.70;55.70
39021;DHT22;25188;51.958;5.842;2023-05-24T14:59:08;22.30;53.80
39021;DHT22;25188;51.958;5.842;2023-05-24T15:01:34;22.30;52.90
39021;DHT22;25188;51.958;5.842;2023-05-24T15:03:59;22.20;52.50
39021;DHT22;25188;51.958;5.842;2023-05-24T15:06:26;22.00;52.70
39021;DHT22;25188;51.958;5.842;2023-05-24T15:08:54;21.70;53.10
39021;DHT22;25188;51.958;5.842;2023-05-24T15:11:20;21.50;53.20
39021;DHT22;25188;51.958;5.842;2023-05-24T15:13:47;21.20;53.30
39021;DHT22;25188;51.958;5.842;2023-05-24T15:16:13;20.80;53.40
39021;DHT22;25188;51.958;5.842;2023-05-24T15:18:38;20.50;53.50
39021;DHT22;25188;51.958;5.842;2023-05-24T15:21:04;20.40;53.80
39021;DHT22;25188;51.958;5.842;2023-05-24T15:23:30;20.20;54.10
39021;DHT22;25188;51.958;5.842;2023-05-24T15:25:55;20.10;54.50
39021;DHT22;25188;51.958;5.842;2023-05-24T15:28:21;20.00;54.90
39021;DHT22;25188;51.958;5.842;2023-05-24T15:30:47;19.90;55.20
39021;DHT22;25188;51.958;5.842;2023-05-24T15:33:13;19.80;55.30
39021;DHT22;25188;51.958;5.842;2023-05-24T15:35:41;19.80;55.50
39021;DHT22;25188;51.958;5.842;2023-05-24T15:38:07;19.70;55.60
39021;DHT22;25188;51.958;5.842;2023-05-24T15:40:32;19.60;55.80
39021;DHT22;25188;51.958;5.842;2023-05-24T15:42:58;19.60;55.90
39021;DHT22;25188;51.958;5.842;2023-05-24T15:45:24;19.50;56.10
39021;DHT22;25188;51.958;5.842;2023-05-24T15:47:50;19.50;56.20
39021;DHT22;25188;51.958;5.842;2023-05-24T15:50:16;19.40;56.40